MyWebLog Booking Liste

 

Nyhetsmelding

Kopirett © 2014 Værnes Flyklubb. Alle rettigheter reservert.
Joomla! er fri programvare utgitt under GNU/GPL License.
 

METAR

ENVA 232150Z 11010KT CAVOK 11/M00 Q1029 RMK WIND 670FT 17011KT

TAF ENVA 2321/2421 12010KT CAVOK BECMG 2321/2324 VRB07KT PROB30 2411/2418 28010KT